Terminal Aerodrome Forecast
Issued by NWS

Home | Current Version | Previous Version | Text Only | Print | Product List | Glossary On
Versions: 1 2 3 4 5 6 7 8 9 10 11 12 13 14
951
FTUS43 KPAH 191724
TAFCGI
TAF
KCGI 191724Z 1918/2018 18009G19KT P6SM FEW250
     FM200000 19009KT P6SM SCT250 WS020/23045KT
     FM201100 20008KT P6SM BKN100
     FM201300 20007KT P6SM BKN025
     FM201600 20009KT P6SM OVC015=

USA.gov is the U.S. government's official web portal to all federal, state and local government web resources and services.